KBGD/BGD METAR and TAF weather

Enter ICAO airport designator
Station Type Date Time Source
KBGD METAR 2020/07/09 23:51 UTC NOAA

KBGD 092351Z AUTO 01013G17KT 10SM CLR 42/07 A2983 RMK AO2 SLP041 T04170067 10428 20383 $


Station Type Date Time Source
KBGD Decoded METAR 2020/07/09 23:51 UTC NOAA

BORGER HUTCHINSON CO AIRPORT , TX, United States (KBGD) 35-42N 101-24W 927M
Jul 09, 2020 - 07:51 PM EDT / 2020.07.09 2351 UTC
Wind: from the N (010 degrees) at 15 MPH (13 KT) gusting to 20 MPH (17 KT):0
Visibility: 10 mile(s):0
Sky conditions: clear
Temperature: 107.1 F (41.7 C)
Dew Point: 44.1 F (6.7 C)
Relative Humidity: 12%
Pressure (altimeter): 29.83 in. Hg (1010 hPa)
ob: KBGD 092351Z AUTO 01013G17KT 10SM CLR 42/07 A2983 RMK AO2 SLP041 T04170067 10428 20383
cycle: 0

Station Type Date Time Source
KBGD TAF UTC NOAA

Error!

Example: see airport list